Time;durP1;ratioP1;P1;durP2;ratioP2;P2;SDS_P1;SDS_P2;PMS_P1;PMS_P2;Temp;Humidity;BMP_temperature;BMP_pressure;BME280_temperature;BME280_humidity;BME280_pressure;Samples;Min_cycle;Max_cycle;Signal;HPM_P1;HPM_P2
2021/05/30 00:00:50;;;;;;;3.60;2.60;;;8.50;85.70;;;;;;5020999;28;20862;-60
2021/05/30 00:03:16;;;;;;;5.00;3.23;;;8.40;86.20;;;;;;5025328;28;20453;-60
2021/05/30 00:05:42;;;;;;;4.90;3.27;;;8.40;86.60;;;;;;5006698;28;20464;-60
2021/05/30 00:08:08;;;;;;;3.80;3.10;;;8.30;87.10;;;;;;5025461;28;20929;-60
2021/05/30 00:10:34;;;;;;;11.80;3.70;;;8.30;87.60;;;;;;5030778;28;20438;-60
2021/05/30 00:13:00;;;;;;;3.90;3.43;;;8.30;88.20;;;;;;5022819;28;20491;-60
2021/05/30 00:15:26;;;;;;;5.30;4.10;;;8.20;88.60;;;;;;5025905;28;20513;-60
2021/05/30 00:17:52;;;;;;;7.00;3.73;;;8.20;88.80;;;;;;5016204;28;20876;-61
2021/05/30 00:20:18;;;;;;;5.00;3.70;;;8.10;89.10;;;;;;5029555;28;20178;-60
2021/05/30 00:22:43;;;;;;;5.20;3.40;;;8.10;89.60;;;;;;5032922;28;20176;-60
2021/05/30 00:25:10;;;;;;;4.23;3.30;;;8.00;90.00;;;;;;5014615;28;20225;-60
2021/05/30 00:27:36;;;;;;;6.93;3.13;;;8.00;90.10;;;;;;5023344;28;20334;-61
2021/05/30 00:30:03;;;;;;;4.33;2.90;;;8.00;90.30;;;;;;5008728;28;20994;-59
2021/05/30 00:32:29;;;;;;;3.90;2.97;;;7.90;90.50;;;;;;5007374;28;20491;-60
2021/05/30 00:34:55;;;;;;;3.13;2.83;;;7.90;90.90;;;;;;5026758;28;20521;-60
2021/05/30 00:37:21;;;;;;;4.83;3.30;;;7.90;91.10;;;;;;5006313;28;20207;-59
2021/05/30 00:39:47;;;;;;;2.80;2.60;;;7.80;91.40;;;;;;5025919;28;20232;-59
2021/05/30 00:42:13;;;;;;;3.13;2.77;;;7.80;91.40;;;;;;5008279;28;20914;-60
2021/05/30 00:44:38;;;;;;;9.13;3.00;;;7.80;91.40;;;;;;5035781;28;21005;-60
2021/05/30 00:47:04;;;;;;;3.40;2.37;;;7.80;91.80;;;;;;5011456;28;20570;-61
2021/05/30 00:49:30;;;;;;;3.63;2.83;;;7.80;91.70;;;;;;5005660;28;20180;-60
2021/05/30 00:51:56;;;;;;;4.07;2.87;;;7.70;91.40;;;;;;5023296;28;20827;-61
2021/05/30 00:54:21;;;;;;;3.37;2.70;;;7.70;91.60;;;;;;5041828;28;20275;-61
2021/05/30 00:56:48;;;;;;;4.83;3.23;;;7.60;91.80;;;;;;5028239;28;20203;-60
2021/05/30 00:59:14;;;;;;;2.93;2.53;;;7.60;92.00;;;;;;5032633;28;20460;-60
2021/05/30 01:01:41;;;;;;;3.00;2.70;;;7.60;92.20;;;;;;5031132;28;20442;-60
2021/05/30 01:04:09;;;;;;;3.60;2.90;;;7.50;92.40;;;;;;5020789;28;20528;-60
2021/05/30 01:06:35;;;;;;;3.17;2.80;;;7.50;92.70;;;;;;5053990;28;20449;-61
2021/05/30 01:09:03;;;;;;;4.30;3.00;;;7.50;92.70;;;;;;5043504;28;20434;-61
2021/05/30 01:11:29;;;;;;;3.80;3.13;;;7.50;92.70;;;;;;5040253;28;20552;-60
2021/05/30 01:13:58;;;;;;;7.30;3.03;;;7.50;92.80;;;;;;5031731;28;20605;-61
2021/05/30 01:16:25;;;;;;;2.90;2.70;;;7.40;92.90;;;;;;5032049;28;20466;-60
2021/05/30 01:18:54;;;;;;;7.00;2.83;;;7.40;93.00;;;;;;5029398;28;20545;-60
2021/05/30 01:21:21;;;;;;;4.37;2.97;;;7.40;93.10;;;;;;5033170;28;20425;-60
2021/05/30 01:23:51;;;;;;;3.70;2.73;;;7.30;93.20;;;;;;5037306;28;20435;-60
2021/05/30 01:26:17;;;;;;;5.93;2.50;;;7.30;93.50;;;;;;5016042;28;20978;-59
2021/05/30 01:28:42;;;;;;;5.20;3.17;;;7.20;93.50;;;;;;5019743;28;20458;-60
2021/05/30 01:31:08;;;;;;;7.27;3.40;;;7.20;93.40;;;;;;5014479;28;20183;-59
2021/05/30 01:33:34;;;;;;;5.70;3.10;;;7.20;93.40;;;;;;5040099;28;20588;-59
2021/05/30 01:35:59;;;;;;;4.27;2.90;;;7.10;93.70;;;;;;5029624;28;20912;-58
2021/05/30 01:38:25;;;;;;;5.07;2.97;;;7.10;93.70;;;;;;5030141;28;20222;-60
2021/05/30 01:40:51;;;;;;;5.30;2.80;;;7.00;93.80;;;;;;5032001;28;20633;-59
2021/05/30 01:43:16;;;;;;;3.30;3.00;;;7.00;93.90;;;;;;5029286;28;20261;-60
2021/05/30 01:45:42;;;;;;;3.83;3.23;;;7.00;94.20;;;;;;5038889;28;20195;-59
2021/05/30 01:48:08;;;;;;;4.57;2.80;;;6.90;94.20;;;;;;5009320;28;20846;-60
2021/05/30 01:50:34;;;;;;;7.90;3.50;;;6.90;94.30;;;;;;5038927;28;20191;-60
2021/05/30 01:53:07;;;;;;;4.03;2.70;;;6.90;94.40;;;;;;5036409;28;20201;-60
2021/05/30 01:58:07;;;;;;;3.37;3.03;;;6.80;94.90;;;;;;5029258;28;21039;-60
2021/05/30 02:00:36;;;;;;;3.73;3.23;;;6.80;95.10;;;;;;5035082;28;20422;-60
2021/05/30 02:03:03;;;;;;;5.20;2.93;;;6.80;95.30;;;;;;5015216;28;20660;-61
2021/05/30 02:05:30;;;;;;;4.43;3.00;;;6.70;95.30;;;;;;5044591;28;20456;-60
2021/05/30 02:07:56;;;;;;;3.40;3.10;;;6.70;95.30;;;;;;5040367;28;20457;-61
2021/05/30 02:10:23;;;;;;;3.87;3.23;;;6.70;95.40;;;;;;5018661;28;20431;-60
2021/05/30 02:12:54;;;;;;;7.30;3.00;;;6.70;95.50;;;;;;5022419;28;20513;-59
2021/05/30 02:15:22;;;;;;;3.30;3.00;;;6.70;95.70;;;;;;5023488;28;20464;-60
2021/05/30 02:17:48;;;;;;;3.73;3.10;;;6.70;95.70;;;;;;5039712;28;20441;-60
2021/05/30 02:20:16;;;;;;;5.93;3.33;;;6.60;95.70;;;;;;5013009;28;20433;-60
2021/05/30 02:22:42;;;;;;;3.50;3.20;;;6.60;95.90;;;;;;5038127;28;20429;-60
2021/05/30 02:25:11;;;;;;;4.30;2.67;;;6.60;96.00;;;;;;5029113;28;20950;-60
2021/05/30 02:27:38;;;;;;;4.63;2.90;;;6.60;96.00;;;;;;5032409;28;20544;-59
2021/05/30 02:30:05;;;;;;;3.63;2.97;;;6.60;96.00;;;;;;5028245;28;20429;-59
2021/05/30 02:32:30;;;;;;;4.63;3.00;;;6.50;96.20;;;;;;5022816;28;20453;-60
2021/05/30 02:34:56;;;;;;;5.17;3.67;;;6.50;96.20;;;;;;5011019;28;20442;-59
2021/05/30 02:37:22;;;;;;;4.93;3.27;;;6.50;96.10;;;;;;5032576;28;20211;-59
2021/05/30 02:39:48;;;;;;;3.03;2.80;;;6.50;96.20;;;;;;5032463;28;20204;-60
2021/05/30 02:42:14;;;;;;;3.47;3.07;;;6.40;96.40;;;;;;5034542;28;20168;-60
2021/05/30 02:44:40;;;;;;;3.50;3.20;;;6.40;96.40;;;;;;5029568;28;20433;-59
2021/05/30 02:47:06;;;;;;;4.87;3.40;;;6.40;96.30;;;;;;5030185;28;20214;-59
2021/05/30 02:49:33;;;;;;;3.93;3.50;;;6.40;96.30;;;;;;5023930;28;20538;-60
2021/05/30 02:51:59;;;;;;;8.73;3.87;;;6.40;96.30;;;;;;5028469;28;20938;-60
2021/05/30 02:54:25;;;;;;;4.50;3.30;;;6.30;96.30;;;;;;5030222;28;20418;-60
2021/05/30 02:56:51;;;;;;;4.57;3.73;;;6.30;96.40;;;;;;5028505;28;20458;-60
2021/05/30 02:59:17;;;;;;;3.93;2.87;;;6.30;96.50;;;;;;5008580;28;20261;-59
2021/05/30 03:01:42;;;;;;;3.47;3.17;;;6.30;96.50;;;;;;5019373;28;20180;-60
2021/05/30 03:04:08;;;;;;;5.23;3.47;;;6.20;96.50;;;;;;5032180;28;20176;-59
2021/05/30 03:06:34;;;;;;;5.13;3.40;;;6.20;96.70;;;;;;5009986;28;20201;-60
2021/05/30 03:09:00;;;;;;;4.40;2.77;;;6.10;96.80;;;;;;5016968;28;20671;-60
2021/05/30 03:11:26;;;;;;;3.17;2.87;;;6.10;96.90;;;;;;5040182;28;20445;-61
2021/05/30 03:13:53;;;;;;;5.27;3.60;;;6.10;97.00;;;;;;5027338;28;21276;-59
2021/05/30 03:16:19;;;;;;;3.73;2.90;;;6.00;97.00;;;;;;5033530;28;20957;-60
2021/05/30 03:18:45;;;;;;;2.63;2.43;;;6.00;97.20;;;;;;5031204;28;20450;-60
2021/05/30 03:21:11;;;;;;;3.07;2.83;;;6.00;97.10;;;;;;5032609;28;20439;-59
2021/05/30 03:23:37;;;;;;;3.50;2.93;;;6.00;97.10;;;;;;5027922;28;20430;-59
2021/05/30 03:26:03;;;;;;;4.77;3.60;;;6.00;97.10;;;;;;5023899;28;20922;-59
2021/05/30 03:28:29;;;;;;;4.33;3.13;;;6.00;97.30;;;;;;5033152;28;20711;-59
2021/05/30 03:30:55;;;;;;;4.63;3.17;;;5.90;97.30;;;;;;5028509;28;20441;-60
2021/05/30 03:33:21;;;;;;;3.00;2.70;;;5.90;97.40;;;;;;5024938;28;20528;-60
2021/05/30 03:35:47;;;;;;;5.57;3.90;;;5.90;97.40;;;;;;5009329;28;20186;-60
2021/05/30 03:38:14;;;;;;;4.30;3.60;;;5.90;97.40;;;;;;5041686;28;20466;-59
2021/05/30 03:43:07;;;;;;;4.67;3.00;;;5.90;97.20;;;;;;5015466;28;20458;-60
2021/05/30 03:45:34;;;;;;;3.23;2.70;;;5.90;97.10;;;;;;5040679;28;20433;-60
2021/05/30 03:47:59;;;;;;;2.70;2.50;;;5.80;97.00;;;;;;5035968;28;20527;-59
2021/05/30 03:50:26;;;;;;;2.80;2.50;;;5.80;97.20;;;;;;5011934;28;20438;-59
2021/05/30 03:52:52;;;;;;;3.87;2.90;;;5.80;97.40;;;;;;5016038;28;20187;-58
2021/05/30 03:55:19;;;;;;;3.33;2.97;;;5.80;97.40;;;;;;5034905;28;20449;-60
2021/05/30 03:57:45;;;;;;;3.80;2.53;;;5.70;97.60;;;;;;5008461;28;20454;-60
2021/05/30 04:00:14;;;;;;;6.37;3.30;;;5.70;97.70;;;;;;5036321;28;21014;-59
2021/05/30 04:02:40;;;;;;;6.60;3.40;;;5.70;97.70;;;;;;5027021;28;20930;-60
2021/05/30 04:05:06;;;;;;;4.67;3.10;;;5.70;97.90;;;;;;5016435;28;20437;-60
2021/05/30 04:07:33;;;;;;;3.57;2.63;;;5.70;98.10;;;;;;5025888;28;20233;-60
2021/05/30 04:10:03;;;;;;;9.73;3.40;;;5.80;97.90;;;;;;5020210;28;20496;-59
2021/05/30 04:12:29;;;;;;;3.37;2.93;;;5.80;97.80;;;;;;5007366;28;21045;-59
2021/05/30 04:14:55;;;;;;;7.80;2.90;;;5.80;97.90;;;;;;5034526;28;20437;-59
2021/05/30 04:17:21;;;;;;;3.00;2.70;;;5.90;97.90;;;;;;5015819;28;20584;-60
2021/05/30 04:19:46;;;;;;;3.73;3.20;;;5.90;98.00;;;;;;5027326;28;20233;-60
2021/05/30 04:22:12;;;;;;;3.27;2.97;;;5.90;97.80;;;;;;5026328;28;20704;-60
2021/05/30 04:24:38;;;;;;;3.57;3.27;;;6.00;97.70;;;;;;5021559;28;20225;-61
2021/05/30 04:27:04;;;;;;;5.90;3.90;;;6.10;97.70;;;;;;5033231;28;20984;-59
2021/05/30 04:29:29;;;;;;;4.17;3.47;;;6.10;97.80;;;;;;5037608;28;20253;-60
2021/05/30 04:31:55;;;;;;;3.10;2.83;;;6.10;98.00;;;;;;5045040;28;21020;-59
2021/05/30 04:34:21;;;;;;;4.27;3.30;;;6.20;98.20;;;;;;5031410;28;20215;-60
2021/05/30 04:36:46;;;;;;;3.43;3.10;;;6.20;98.20;;;;;;5027222;28;20333;-60
2021/05/30 04:39:12;;;;;;;3.40;3.10;;;6.30;98.00;;;;;;5030451;28;20288;-60
2021/05/30 04:41:38;;;;;;;4.83;4.30;;;6.40;97.70;;;;;;5032690;28;20419;-60
2021/05/30 04:44:03;;;;;;;3.37;3.07;;;6.50;97.80;;;;;;5030468;28;20247;-59
2021/05/30 04:46:29;;;;;;;4.80;3.23;;;6.50;97.40;;;;;;5035537;28;20191;-60
2021/05/30 04:48:55;;;;;;;3.57;3.27;;;6.60;97.40;;;;;;5034197;28;20188;-60
2021/05/30 04:51:20;;;;;;;5.33;3.80;;;6.70;97.10;;;;;;5014805;28;20695;-59
2021/05/30 04:53:46;;;;;;;7.00;3.43;;;6.70;96.90;;;;;;5042116;28;20179;-60
2021/05/30 04:56:19;;;;;;;5.03;3.20;;;6.80;96.60;;;;;;5018395;28;20179;-60
2021/05/30 04:58:45;;;;;;;3.10;2.90;;;6.90;96.50;;;;;;5008421;28;20703;-59
2021/05/30 05:01:10;;;;;;;4.53;4.00;;;6.90;96.20;;;;;;5016614;28;20450;-60
2021/05/30 05:03:36;;;;;;;6.70;4.07;;;7.00;96.30;;;;;;5029840;28;20187;-60
2021/05/30 05:06:02;;;;;;;5.90;3.63;;;7.10;96.20;;;;;;5037245;28;20172;-59
2021/05/30 05:08:27;;;;;;;3.97;3.20;;;7.20;95.90;;;;;;5035577;28;20183;-60
2021/05/30 05:10:53;;;;;;;6.20;3.70;;;7.30;95.80;;;;;;5027504;28;20259;-61
2021/05/30 05:13:20;;;;;;;3.53;3.20;;;7.30;95.90;;;;;;5036032;28;20207;-60
2021/05/30 05:15:48;;;;;;;4.67;3.20;;;7.40;96.00;;;;;;5014087;28;20426;-60
2021/05/30 05:18:19;;;;;;;3.60;3.30;;;7.50;95.40;;;;;;5020562;28;20469;-60
2021/05/30 05:20:45;;;;;;;4.63;3.70;;;7.60;95.10;;;;;;5041593;28;20433;-59
2021/05/30 05:23:13;;;;;;;5.87;4.30;;;7.70;95.40;;;;;;5010038;28;20445;-59
2021/05/30 05:25:39;;;;;;;4.63;3.47;;;7.80;95.10;;;;;;5029386;28;20521;-60
2021/05/30 05:28:05;;;;;;;3.70;3.33;;;7.90;94.80;;;;;;5036143;28;20884;-60
2021/05/30 05:30:31;;;;;;;3.97;3.00;;;8.00;95.10;;;;;;5051054;28;20980;-60
2021/05/30 05:32:58;;;;;;;3.23;2.93;;;8.10;95.30;;;;;;5033726;28;20241;-60
2021/05/30 05:35:24;;;;;;;5.80;3.00;;;8.20;95.10;;;;;;5032521;28;20417;-60
2021/05/30 05:38:00;;;;;;;3.77;3.10;;;8.30;94.80;;;;;;5034373;28;20826;-60
2021/05/30 05:40:27;;;;;;;3.07;2.77;;;8.40;94.60;;;;;;5029220;28;20175;-59
2021/05/30 05:42:53;;;;;;;4.63;3.23;;;8.50;94.20;;;;;;5034000;28;20421;-59
2021/05/30 05:45:20;;;;;;;5.13;2.73;;;8.70;93.70;;;;;;5041812;28;20950;-60
2021/05/30 05:47:45;;;;;;;3.57;2.87;;;8.80;93.40;;;;;;5028401;28;20479;-60
2021/05/30 05:50:13;;;;;;;3.53;2.60;;;8.90;93.20;;;;;;5028670;28;20461;-60
2021/05/30 05:52:39;;;;;;;3.43;3.13;;;9.00;93.00;;;;;;5027007;28;20176;-60
2021/05/30 05:55:07;;;;;;;4.13;3.10;;;9.10;92.90;;;;;;5026017;28;21827;-60
2021/05/30 05:57:33;;;;;;;2.80;2.60;;;9.20;93.00;;;;;;4997903;28;20466;-60
2021/05/30 05:59:59;;;;;;;2.70;2.50;;;9.30;93.30;;;;;;5003126;28;20462;-58
2021/05/30 06:02:25;;;;;;;3.10;2.80;;;9.40;93.30;;;;;;5018293;28;20429;-60
2021/05/30 06:04:51;;;;;;;3.23;2.83;;;9.60;92.70;;;;;;5015646;28;20546;-57
2021/05/30 06:07:17;;;;;;;3.40;3.17;;;9.80;92.40;;;;;;5024280;28;20459;-58
2021/05/30 06:09:43;;;;;;;3.63;3.20;;;9.90;91.50;;;;;;5027028;28;20868;-56
2021/05/30 06:12:09;;;;;;;3.63;3.33;;;10.10;90.50;;;;;;5022499;28;20746;-58
2021/05/30 06:14:35;;;;;;;5.50;4.13;;;10.30;90.40;;;;;;5019148;28;20195;-58
2021/05/30 06:17:02;;;;;;;9.13;3.60;;;10.50;89.20;;;;;;5017230;28;20459;-60
2021/05/30 06:19:28;;;;;;;6.10;3.60;;;10.70;88.20;;;;;;5023185;28;20621;-59
2021/05/30 06:21:54;;;;;;;4.47;3.40;;;10.80;86.70;;;;;;5010390;28;20905;-60
2021/05/30 06:24:19;;;;;;;4.63;3.90;;;11.00;84.80;;;;;;5026434;28;20206;-61
2021/05/30 06:26:45;;;;;;;4.50;3.30;;;11.10;83.70;;;;;;5029350;28;20192;-60
2021/05/30 06:29:11;;;;;;;5.53;3.77;;;11.30;82.80;;;;;;5028989;28;20176;-60
2021/05/30 06:31:37;;;;;;;3.80;3.30;;;11.50;82.70;;;;;;5008179;28;20184;-60
2021/05/30 06:34:02;;;;;;;5.50;3.70;;;11.60;81.60;;;;;;5025988;28;20179;-59
2021/05/30 06:36:28;;;;;;;5.53;4.50;;;11.80;80.30;;;;;;5014858;28;20187;-60
2021/05/30 06:38:54;;;;;;;3.63;3.33;;;11.90;78.30;;;;;;5029975;28;20235;-61
2021/05/30 06:41:19;;;;;;;3.47;3.17;;;12.10;76.20;;;;;;5027063;28;20191;-60
2021/05/30 06:43:46;;;;;;;3.37;3.07;;;12.20;75.20;;;;;;5025197;28;20176;-61
2021/05/30 06:46:12;;;;;;;5.47;3.60;;;12.40;74.20;;;;;;5024512;28;20175;-61
2021/05/30 06:48:37;;;;;;;3.30;3.00;;;12.50;72.60;;;;;;5026499;28;20437;-60
2021/05/30 06:51:13;;;;;;;5.20;3.60;;;12.60;70.40;;;;;;5025075;28;20182;-62
2021/05/30 06:53:39;;;;;;;3.53;2.80;;;12.80;70.50;;;;;;5029042;28;20666;-59
2021/05/30 06:56:04;;;;;;;3.97;3.20;;;13.00;69.30;;;;;;5018850;28;20439;-62
2021/05/30 06:58:30;;;;;;;4.87;3.20;;;13.10;67.60;;;;;;5014090;28;20833;-60
2021/05/30 07:00:56;;;;;;;4.07;3.50;;;13.20;66.00;;;;;;5023542;28;20183;-62
2021/05/30 07:03:21;;;;;;;3.90;3.50;;;13.30;63.50;;;;;;5025286;28;20270;-61
2021/05/30 07:05:47;;;;;;;3.70;3.10;;;13.40;62.10;;;;;;5011281;28;21145;-62
2021/05/30 07:08:13;;;;;;;3.50;3.07;;;13.50;60.90;;;;;;5012848;28;20207;-61
2021/05/30 07:10:38;;;;;;;5.33;3.30;;;13.60;60.90;;;;;;5021906;28;20187;-61
2021/05/30 07:13:04;;;;;;;4.07;3.57;;;13.70;60.40;;;;;;5003345;28;20180;-61
2021/05/30 07:15:29;;;;;;;4.13;3.20;;;13.80;58.90;;;;;;5020584;28;20648;-61
2021/05/30 07:17:56;;;;;;;5.30;3.40;;;13.80;58.60;;;;;;5029258;28;20203;-61
2021/05/30 07:20:22;;;;;;;3.60;3.30;;;13.90;58.60;;;;;;5008835;28;20203;-60
2021/05/30 07:22:47;;;;;;;5.17;3.67;;;13.90;58.30;;;;;;5018560;28;20463;-60
2021/05/30 07:25:13;;;;;;;3.67;3.30;;;13.90;59.30;;;;;;5031699;28;20186;-60
2021/05/30 07:27:39;;;;;;;5.67;3.60;;;14.00;58.30;;;;;;5006834;28;20278;-61
2021/05/30 07:30:07;;;;;;;5.40;3.10;;;14.00;57.70;;;;;;5019225;28;20176;-61
2021/05/30 07:32:33;;;;;;;7.40;2.93;;;14.10;57.00;;;;;;5009486;28;20423;-61
2021/05/30 07:34:59;;;;;;;5.10;3.20;;;14.20;56.80;;;;;;5026635;28;20453;-61
2021/05/30 07:37:24;;;;;;;4.60;3.10;;;14.20;56.80;;;;;;5021221;28;20937;-60
2021/05/30 07:39:50;;;;;;;4.40;2.90;;;14.20;56.20;;;;;;5018370;28;20196;-61
2021/05/30 07:42:16;;;;;;;5.20;3.43;;;14.30;56.80;;;;;;5021353;28;20601;-61
2021/05/30 07:44:42;;;;;;;7.23;3.43;;;14.40;56.30;;;;;;5017894;28;20756;-62
2021/05/30 07:47:08;;;;;;;3.90;3.30;;;14.40;55.20;;;;;;5016415;28;20495;-61
2021/05/30 07:49:34;;;;;;;3.40;3.10;;;14.50;55.80;;;;;;5018408;28;20189;-61
2021/05/30 07:52:00;;;;;;;5.23;3.73;;;14.60;55.60;;;;;;5010879;28;20938;-62
2021/05/30 07:54:26;;;;;;;6.17;3.20;;;14.70;55.30;;;;;;5016441;28;20435;-61
2021/05/30 07:56:52;;;;;;;4.50;3.60;;;14.70;54.90;;;;;;5009609;28;20467;-60
2021/05/30 07:59:18;;;;;;;4.60;3.17;;;14.80;55.30;;;;;;5009909;28;20192;-61
2021/05/30 08:01:44;;;;;;;8.63;5.10;;;14.80;55.00;;;;;;4994125;28;20330;-59
2021/05/30 08:04:10;;;;;;;5.90;3.50;;;14.90;57.40;;;;;;5010725;28;21311;-61
2021/05/30 08:06:35;;;;;;;7.60;3.70;;;15.10;56.60;;;;;;5005706;28;20191;-60
2021/05/30 08:09:03;;;;;;;3.60;3.30;;;15.20;54.20;;;;;;5010519;28;20184;-60
2021/05/30 08:11:29;;;;;;;10.63;3.60;;;15.20;54.20;;;;;;5004217;28;20230;-61
2021/05/30 08:13:55;;;;;;;3.37;3.07;;;15.20;53.60;;;;;;5001602;28;20428;-62
2021/05/30 08:16:21;;;;;;;3.80;3.40;;;15.20;52.50;;;;;;5022914;28;20347;-62
2021/05/30 08:18:48;;;;;;;4.80;3.30;;;15.20;51.60;;;;;;5018770;28;20845;-61
2021/05/30 08:21:14;;;;;;;5.20;3.20;;;15.20;51.10;;;;;;5004036;28;20506;-61
2021/05/30 08:23:42;;;;;;;4.60;3.10;;;15.20;50.90;;;;;;5007138;28;21063;-62
2021/05/30 08:26:09;;;;;;;6.43;3.77;;;15.30;50.90;;;;;;5027422;28;20923;-61
2021/05/30 08:28:35;;;;;;;4.10;3.03;;;15.30;51.10;;;;;;5007491;28;20471;-62
2021/05/30 08:31:01;;;;;;;4.03;2.63;;;15.40;51.20;;;;;;5019995;28;20513;-67
2021/05/30 08:33:28;;;;;;;5.23;3.40;;;15.50;51.90;;;;;;5019035;28;20529;-61
2021/05/30 08:35:53;;;;;;;4.13;3.10;;;15.60;52.00;;;;;;5008587;28;20310;-62
2021/05/30 08:38:20;;;;;;;8.80;3.17;;;15.80;51.90;;;;;;5007711;28;20458;-62
2021/05/30 08:40:47;;;;;;;5.53;2.90;;;15.80;51.40;;;;;;5014125;28;20180;-61
2021/05/30 08:43:15;;;;;;;4.60;3.40;;;15.90;50.90;;;;;;5021916;28;20431;-60
2021/05/30 08:45:40;;;;;;;4.10;2.90;;;15.90;51.10;;;;;;5028572;28;20418;-61
2021/05/30 08:48:07;;;;;;;3.47;3.17;;;16.00;50.60;;;;;;5010383;28;20814;-60
2021/05/30 08:50:32;;;;;;;3.53;2.37;;;16.10;50.00;;;;;;5031589;28;20197;-60
2021/05/30 08:52:58;;;;;;;4.70;3.30;;;16.10;48.90;;;;;;5003939;28;20435;-60
2021/05/30 08:55:24;;;;;;;4.57;2.50;;;16.20;49.00;;;;;;5004802;28;20179;-62
2021/05/30 08:57:49;;;;;;;2.70;2.33;;;16.30;48.90;;;;;;5017399;28;20204;-62
2021/05/30 09:00:21;;;;;;;3.10;2.60;;;16.30;48.60;;;;;;5015471;28;20470;-61
2021/05/30 09:02:47;;;;;;;2.77;2.57;;;16.40;47.90;;;;;;5016349;28;20223;-60
2021/05/30 09:05:13;;;;;;;3.63;2.60;;;16.50;47.20;;;;;;5019540;28;20520;-61
2021/05/30 09:07:41;;;;;;;4.43;2.40;;;16.60;45.20;;;;;;5008022;28;20291;-61
2021/05/30 09:10:18;;;;;;;3.37;2.40;;;16.60;43.90;;;;;;5020733;28;20434;-61
2021/05/30 09:12:44;;;;;;;2.50;2.10;;;16.60;44.10;;;;;;5007282;28;20443;-63
2021/05/30 09:15:51;;;;;;;2.43;1.70;;;16.70;44.00;;;;;;5020131;28;20875;-61
2021/05/30 09:18:22;;;;;;;4.47;1.97;;;16.80;43.60;;;;;;5017915;28;20470;-61
2021/05/30 09:20:59;;;;;;;2.00;1.90;;;16.80;42.20;;;;;;5021619;28;20445;-60
2021/05/30 09:23:41;;;;;;;2.10;1.90;;;16.90;41.90;;;;;;5016821;28;20524;-61
2021/05/30 09:26:22;;;;;;;3.03;1.90;;;16.90;40.20;;;;;;5000478;28;20438;-62
2021/05/30 09:29:03;;;;;;;1.90;1.53;;;17.00;39.60;;;;;;5010341;28;20445;-60
2021/05/30 09:31:29;;;;;;;1.30;1.20;;;17.10;39.40;;;;;;5022329;28;20469;-60
2021/05/30 09:33:55;;;;;;;1.50;1.40;;;17.20;40.40;;;;;;5026660;28;20957;-60
2021/05/30 09:36:21;;;;;;;1.67;1.57;;;17.30;39.00;;;;;;5016256;28;20444;-59
2021/05/30 09:38:47;;;;;;;1.90;1.80;;;17.40;39.30;;;;;;5030773;28;20993;-60
2021/05/30 09:41:17;;;;;;;1.50;1.40;;;17.50;39.20;;;;;;5017549;28;20465;-59
2021/05/30 09:43:51;;;;;;;2.20;1.70;;;17.60;38.00;;;;;;5009031;28;20803;-60
2021/05/30 09:46:19;;;;;;;2.20;2.00;;;17.70;37.80;;;;;;5023274;28;21288;-59
2021/05/30 09:48:47;;;;;;;2.03;1.60;;;17.70;37.50;;;;;;5029112;28;20426;-60
2021/05/30 09:51:38;;;;;;;3.00;1.80;;;17.70;36.20;;;;;;5036809;28;21089;-61
2021/05/30 09:54:10;;;;;;;1.50;1.30;;;17.80;35.70;;;;;;5042987;28;20470;-61
2021/05/30 09:56:52;;;;;;;1.60;1.50;;;17.80;36.80;;;;;;5038340;28;20487;-62
2021/05/30 09:59:19;;;;;;;1.63;1.40;;;17.80;36.00;;;;;;5038856;28;20478;-63
2021/05/30 10:02:00;;;;;;;3.10;1.80;;;17.90;36.90;;;;;;5032353;28;20602;-60
2021/05/30 10:04:32;;;;;;;1.80;1.70;;;18.00;37.70;;;;;;5012724;28;20426;-60
2021/05/30 10:07:03;;;;;;;1.73;1.63;;;18.10;37.20;;;;;;5023452;28;20560;-60
2021/05/30 10:09:30;;;;;;;2.57;2.10;;;18.20;38.70;;;;;;5020366;28;20447;-60
2021/05/30 10:11:57;;;;;;;2.13;1.93;;;18.20;39.00;;;;;;4994813;28;21062;-62
2021/05/30 10:14:24;;;;;;;7.10;2.33;;;18.30;38.70;;;;;;5005199;28;20450;-61
2021/05/30 10:16:51;;;;;;;6.10;2.50;;;18.40;37.50;;;;;;5027045;28;20438;-60
2021/05/30 10:19:21;;;;;;;3.03;2.03;;;18.50;35.80;;;;;;5019248;28;20477;-60
2021/05/30 10:21:53;;;;;;;2.27;2.07;;;18.50;34.90;;;;;;5014270;28;20545;-61
2021/05/30 10:24:21;;;;;;;2.60;2.10;;;18.50;35.20;;;;;;5010067;28;20439;-61
2021/05/30 10:27:20;;;;;;;2.50;2.23;;;18.60;34.80;;;;;;5016970;28;20500;-63
2021/05/30 10:30:07;;;;;;;2.23;2.03;;;18.70;34.90;;;;;;5030372;28;20422;-60
2021/05/30 10:32:38;;;;;;;3.23;2.20;;;18.90;35.20;;;;;;5005628;28;20971;-61
2021/05/30 10:35:19;;;;;;;2.27;1.97;;;19.00;35.20;;;;;;5003641;28;20438;-60
2021/05/30 10:37:47;;;;;;;4.40;2.27;;;19.10;34.00;;;;;;5020357;28;20934;-62
2021/05/30 10:40:22;;;;;;;2.17;1.90;;;19.10;32.60;;;;;;5006575;28;21460;-60
2021/05/30 10:43:07;;;;;;;2.37;2.03;;;19.10;33.10;;;;;;5003051;28;20437;-61
2021/05/30 10:45:33;;;;;;;2.30;2.10;;;19.20;33.70;;;;;;5007064;28;20795;-60
2021/05/30 10:48:05;;;;;;;2.33;2.13;;;19.20;33.90;;;;;;5010823;28;20476;-61
2021/05/30 10:50:39;;;;;;;2.00;1.90;;;19.30;34.90;;;;;;5005286;28;20462;-60
2021/05/30 10:53:28;;;;;;;3.37;2.60;;;19.30;34.70;;;;;;5006934;28;20489;-61
2021/05/30 10:56:12;;;;;;;3.30;2.37;;;19.40;34.80;;;;;;5010156;28;20442;-61
2021/05/30 10:58:37;;;;;;;3.47;2.27;;;19.50;35.90;;;;;;5022116;28;20559;-60
2021/05/30 11:01:03;;;;;;;2.60;2.20;;;19.50;36.00;;;;;;5015983;28;21020;-61
2021/05/30 11:03:29;;;;;;;5.03;3.00;;;19.70;36.30;;;;;;5011558;28;20219;-60
2021/05/30 11:05:57;;;;;;;3.83;2.40;;;19.80;36.60;;;;;;5004537;28;20556;-60
2021/05/30 11:08:52;;;;;;;3.17;2.73;;;19.80;37.20;;;;;;5006567;28;20218;-60
2021/05/30 11:11:26;;;;;;;3.53;3.00;;;19.90;38.00;;;;;;4992004;28;20461;-59
2021/05/30 11:13:58;;;;;;;3.57;2.33;;;20.00;38.00;;;;;;5015702;28;20438;-59
2021/05/30 11:16:32;;;;;;;4.30;2.77;;;20.10;37.50;;;;;;5001669;28;20505;-59
2021/05/30 11:19:07;;;;;;;4.97;2.57;;;20.10;36.30;;;;;;5017147;28;20460;-60
2021/05/30 11:21:46;;;;;;;4.00;2.80;;;20.10;35.20;;;;;;4997036;28;20444;-59
2021/05/30 11:24:17;;;;;;;6.30;2.77;;;20.10;35.70;;;;;;4999852;28;20802;-60
2021/05/30 11:27:04;;;;;;;2.57;2.37;;;20.10;36.20;;;;;;5008011;28;20472;-62
2021/05/30 11:29:31;;;;;;;3.13;2.60;;;20.30;36.30;;;;;;5012640;28;20897;-61
2021/05/30 11:32:02;;;;;;;3.70;2.53;;;20.30;36.60;;;;;;4998393;28;20439;-59
2021/05/30 11:34:30;;;;;;;3.03;2.67;;;20.50;36.50;;;;;;5005947;28;20442;-60
2021/05/30 11:37:12;;;;;;;3.60;3.00;;;20.50;36.80;;;;;;4990988;28;20666;-58
2021/05/30 11:39:42;;;;;;;5.07;2.53;;;20.60;37.40;;;;;;5003289;28;21029;-59
2021/05/30 11:42:09;;;;;;;4.43;2.50;;;20.70;36.20;;;;;;4995198;28;21061;-60
2021/05/30 11:44:34;;;;;;;3.07;2.20;;;20.70;35.10;;;;;;5017975;28;20430;-59
2021/05/30 11:47:06;;;;;;;5.57;2.80;;;20.70;35.70;;;;;;5005595;28;20518;-59
2021/05/30 11:49:37;;;;;;;8.10;2.50;;;20.80;34.90;;;;;;5001012;28;20266;-58
2021/05/30 11:52:13;;;;;;;3.83;2.50;;;20.90;34.70;;;;;;4994686;28;20857;-58
2021/05/30 11:54:42;;;;;;;3.70;2.27;;;21.00;36.00;;;;;;5018991;28;20793;-60
2021/05/30 11:57:09;;;;;;;3.53;2.60;;;21.10;36.70;;;;;;5004234;28;20458;-59
2021/05/30 11:59:43;;;;;;;3.67;2.50;;;21.20;37.50;;;;;;5001133;28;21689;-59
2021/05/30 12:02:10;;;;;;;3.13;2.80;;;21.30;35.90;;;;;;5015325;28;20461;-62
2021/05/30 12:04:39;;;;;;;6.20;3.13;;;21.30;34.70;;;;;;5005003;28;20772;-59
2021/05/30 12:07:11;;;;;;;5.10;2.50;;;21.30;33.80;;;;;;4999309;28;20844;-58
2021/05/30 12:09:50;;;;;;;3.13;2.83;;;21.30;36.10;;;;;;4994798;28;20442;-60
2021/05/30 12:12:25;;;;;;;4.77;2.30;;;21.30;35.60;;;;;;4994737;28;20480;-59
2021/05/30 12:14:51;;;;;;;2.90;2.70;;;21.20;36.20;;;;;;4999497;28;20465;-60
2021/05/30 12:17:17;;;;;;;2.60;2.40;;;21.30;36.80;;;;;;5012692;28;20592;-59
2021/05/30 12:19:44;;;;;;;2.50;2.30;;;21.30;34.50;;;;;;5008616;28;20873;-61
2021/05/30 12:22:18;;;;;;;2.80;2.20;;;21.40;33.50;;;;;;5006355;28;20183;-59
2021/05/30 12:24:45;;;;;;;3.37;2.40;;;21.50;33.30;;;;;;5027328;28;20528;-58
2021/05/30 12:27:12;;;;;;;7.10;2.50;;;21.70;34.40;;;;;;5021898;28;20447;-59
2021/05/30 12:29:39;;;;;;;2.67;2.47;;;21.90;34.10;;;;;;5013632;28;20449;-59
2021/05/30 12:32:05;;;;;;;3.83;2.43;;;22.10;33.50;;;;;;5024957;28;20445;-58
2021/05/30 12:34:35;;;;;;;5.33;2.20;;;22.20;33.70;;;;;;5005344;28;20426;-60
2021/05/30 12:37:01;;;;;;;3.27;2.67;;;22.30;33.00;;;;;;5022269;28;20214;-61
2021/05/30 12:39:28;;;;;;;5.43;2.37;;;22.40;33.90;;;;;;5004233;28;20459;-59
2021/05/30 12:41:59;;;;;;;2.80;2.50;;;22.50;33.00;;;;;;5008547;28;20291;-60
2021/05/30 12:44:42;;;;;;;3.70;2.40;;;22.50;33.00;;;;;;5004294;28;20466;-59
2021/05/30 12:47:14;;;;;;;3.20;2.47;;;22.60;32.60;;;;;;5030389;28;20469;-58
2021/05/30 12:49:56;;;;;;;4.90;2.70;;;22.60;32.50;;;;;;5027445;28;20450;-59
2021/05/30 12:52:23;;;;;;;2.70;2.50;;;22.70;34.10;;;;;;5004278;28;20833;-59
2021/05/30 12:54:58;;;;;;;5.23;2.47;;;22.80;33.70;;;;;;5026119;28;20935;-60
2021/05/30 12:57:33;;;;;;;2.83;2.20;;;22.90;33.60;;;;;;5033030;28;20460;-60
2021/05/30 12:59:59;;;;;;;2.63;2.43;;;23.00;33.60;;;;;;5018114;28;20457;-59